sensor_id;sensor_type;location;lat;lon;timestamp;temperature;humidity
3709;DHT22;1870;53.996;10.784;2023-05-10T00:00:50;13.90;99.90
3709;DHT22;1870;53.996;10.784;2023-05-10T00:03:16;13.80;99.90
3709;DHT22;1870;53.996;10.784;2023-05-10T00:05:42;13.80;99.90
3709;DHT22;1870;53.996;10.784;2023-05-10T00:08:08;13.90;99.90
3709;DHT22;1870;53.996;10.784;2023-05-10T00:10:34;13.90;99.90
3709;DHT22;1870;53.996;10.784;2023-05-10T00:12:59;13.90;99.90
3709;DHT22;1870;53.996;10.784;2023-05-10T00:15:25;13.90;99.90
3709;DHT22;1870;53.996;10.784;2023-05-10T00:17:51;13.80;99.90
3709;DHT22;1870;53.996;10.784;2023-05-10T00:20:16;13.80;99.90
3709;DHT22;1870;53.996;10.784;2023-05-10T00:22:42;13.70;99.90
3709;DHT22;1870;53.996;10.784;2023-05-10T00:25:08;13.70;99.90
3709;DHT22;1870;53.996;10.784;2023-05-10T00:27:34;13.70;99.90
3709;DHT22;1870;53.996;10.784;2023-05-10T00:30:00;13.70;99.90
3709;DHT22;1870;53.996;10.784;2023-05-10T00:32:25;13.70;99.90
3709;DHT22;1870;53.996;10.784;2023-05-10T00:34:51;13.70;99.90
3709;DHT22;1870;53.996;10.784;2023-05-10T00:37:18;13.60;99.90
3709;DHT22;1870;53.996;10.784;2023-05-10T00:39:44;13.60;99.90
3709;DHT22;1870;53.996;10.784;2023-05-10T00:42:09;13.50;99.90
3709;DHT22;1870;53.996;10.784;2023-05-10T00:44:35;13.50;99.90
3709;DHT22;1870;53.996;10.784;2023-05-10T00:47:01;13.50;99.90
3709;DHT22;1870;53.996;10.784;2023-05-10T00:49:26;13.50;99.90
3709;DHT22;1870;53.996;10.784;2023-05-10T00:51:53;13.50;99.90
3709;DHT22;1870;53.996;10.784;2023-05-10T00:54:18;13.40;99.90
3709;DHT22;1870;53.996;10.784;2023-05-10T00:56:44;13.40;99.90
3709;DHT22;1870;53.996;10.784;2023-05-10T00:59:15;13.40;99.90
3709;DHT22;1870;53.996;10.784;2023-05-10T01:01:43;13.40;99.90
3709;DHT22;1870;53.996;10.784;2023-05-10T01:04:09;13.40;99.90
3709;DHT22;1870;53.996;10.784;2023-05-10T01:06:36;13.40;99.90
3709;DHT22;1870;53.996;10.784;2023-05-10T01:09:02;13.30;99.90
3709;DHT22;1870;53.996;10.784;2023-05-10T01:11:27;13.40;99.90
3709;DHT22;1870;53.996;10.784;2023-05-10T01:13:56;13.30;99.90
3709;DHT22;1870;53.996;10.784;2023-05-10T01:16:23;13.30;99.90
3709;DHT22;1870;53.996;10.784;2023-05-10T01:18:49;13.30;99.90
3709;DHT22;1870;53.996;10.784;2023-05-10T01:21:43;13.30;99.90
3709;DHT22;1870;53.996;10.784;2023-05-10T01:27:07;13.20;99.90
3709;DHT22;1870;53.996;10.784;2023-05-10T01:32:33;13.30;99.90
3709;DHT22;1870;53.996;10.784;2023-05-10T01:35:06;13.20;99.90
3709;DHT22;1870;53.996;10.784;2023-05-10T01:37:45;13.20;99.90
3709;DHT22;1870;53.996;10.784;2023-05-10T01:40:37;13.10;99.90
3709;DHT22;1870;53.996;10.784;2023-05-10T01:43:11;13.20;99.90
3709;DHT22;1870;53.996;10.784;2023-05-10T01:45:50;13.10;99.90
3709;DHT22;1870;53.996;10.784;2023-05-10T01:48:19;13.10;99.90
3709;DHT22;1870;53.996;10.784;2023-05-10T01:50:46;12.90;99.90
3709;DHT22;1870;53.996;10.784;2023-05-10T01:53:19;12.90;99.90
3709;DHT22;1870;53.996;10.784;2023-05-10T01:55:53;13.00;99.90
3709;DHT22;1870;53.996;10.784;2023-05-10T01:58:24;13.00;99.90
3709;DHT22;1870;53.996;10.784;2023-05-10T02:00:52;13.00;99.90
3709;DHT22;1870;53.996;10.784;2023-05-10T02:03:21;12.90;99.90
3709;DHT22;1870;53.996;10.784;2023-05-10T02:05:49;12.90;99.90
3709;DHT22;1870;53.996;10.784;2023-05-10T02:08:17;12.90;99.90
3709;DHT22;1870;53.996;10.784;2023-05-10T02:10:45;12.90;99.90
3709;DHT22;1870;53.996;10.784;2023-05-10T02:13:12;12.90;99.90
3709;DHT22;1870;53.996;10.784;2023-05-10T02:15:40;12.90;99.90
3709;DHT22;1870;53.996;10.784;2023-05-10T02:18:07;12.80;99.90
3709;DHT22;1870;53.996;10.784;2023-05-10T02:20:35;12.90;99.90
3709;DHT22;1870;53.996;10.784;2023-05-10T02:23:02;12.90;99.90
3709;DHT22;1870;53.996;10.784;2023-05-10T02:25:29;12.90;99.90
3709;DHT22;1870;53.996;10.784;2023-05-10T02:27:57;12.80;99.90
3709;DHT22;1870;53.996;10.784;2023-05-10T02:30:26;12.70;99.90
3709;DHT22;1870;53.996;10.784;2023-05-10T02:32:52;12.70;99.90
3709;DHT22;1870;53.996;10.784;2023-05-10T02:35:18;12.80;99.90
3709;DHT22;1870;53.996;10.784;2023-05-10T02:37:45;12.80;99.90
3709;DHT22;1870;53.996;10.784;2023-05-10T02:40:13;12.70;99.90
3709;DHT22;1870;53.996;10.784;2023-05-10T02:42:42;12.70;99.90
3709;DHT22;1870;53.996;10.784;2023-05-10T02:45:12;12.70;99.90
3709;DHT22;1870;53.996;10.784;2023-05-10T02:47:41;12.80;99.90
3709;DHT22;1870;53.996;10.784;2023-05-10T02:50:07;12.70;99.90
3709;DHT22;1870;53.996;10.784;2023-05-10T02:52:40;12.70;99.90
3709;DHT22;1870;53.996;10.784;2023-05-10T02:55:09;12.80;99.90
3709;DHT22;1870;53.996;10.784;2023-05-10T02:57:37;12.70;99.90
3709;DHT22;1870;53.996;10.784;2023-05-10T03:00:04;12.60;99.90
3709;DHT22;1870;53.996;10.784;2023-05-10T03:02:30;12.70;99.90
3709;DHT22;1870;53.996;10.784;2023-05-10T03:04:56;12.70;99.90
3709;DHT22;1870;53.996;10.784;2023-05-10T03:07:25;12.50;99.90
3709;DHT22;1870;53.996;10.784;2023-05-10T03:09:50;12.60;99.90
3709;DHT22;1870;53.996;10.784;2023-05-10T03:15:17;12.60;99.90
3709;DHT22;1870;53.996;10.784;2023-05-10T03:20:48;12.60;99.90
3709;DHT22;1870;53.996;10.784;2023-05-10T03:25:44;12.50;99.90
3709;DHT22;1870;53.996;10.784;2023-05-10T03:28:12;12.60;99.90
3709;DHT22;1870;53.996;10.784;2023-05-10T03:30:41;12.60;99.90
3709;DHT22;1870;53.996;10.784;2023-05-10T03:33:07;12.40;99.90
3709;DHT22;1870;53.996;10.784;2023-05-10T03:35:33;12.40;99.90
3709;DHT22;1870;53.996;10.784;2023-05-10T03:37:58;12.40;99.90
3709;DHT22;1870;53.996;10.784;2023-05-10T03:40:25;12.50;99.90
3709;DHT22;1870;53.996;10.784;2023-05-10T03:42:51;12.50;99.90
3709;DHT22;1870;53.996;10.784;2023-05-10T03:45:17;12.40;99.90
3709;DHT22;1870;53.996;10.784;2023-05-10T03:47:42;12.40;99.90
3709;DHT22;1870;53.996;10.784;2023-05-10T03:50:08;12.50;99.90
3709;DHT22;1870;53.996;10.784;2023-05-10T03:52:33;12.50;99.90
3709;DHT22;1870;53.996;10.784;2023-05-10T03:54:59;12.50;99.90
3709;DHT22;1870;53.996;10.784;2023-05-10T03:57:25;12.50;99.90
3709;DHT22;1870;53.996;10.784;2023-05-10T03:59:50;12.40;99.90
3709;DHT22;1870;53.996;10.784;2023-05-10T04:02:16;12.40;99.90
3709;DHT22;1870;53.996;10.784;2023-05-10T04:04:41;12.40;99.90
3709;DHT22;1870;53.996;10.784;2023-05-10T04:07:07;12.50;99.90
3709;DHT22;1870;53.996;10.784;2023-05-10T04:09:35;12.40;99.90
3709;DHT22;1870;53.996;10.784;2023-05-10T04:12:00;12.50;99.90
3709;DHT22;1870;53.996;10.784;2023-05-10T04:14:27;12.60;99.90
3709;DHT22;1870;53.996;10.784;2023-05-10T04:16:53;12.40;99.90
3709;DHT22;1870;53.996;10.784;2023-05-10T04:19:19;12.50;99.90
3709;DHT22;1870;53.996;10.784;2023-05-10T04:21:47;12.60;99.90
3709;DHT22;1870;53.996;10.784;2023-05-10T04:24:12;12.60;99.90
3709;DHT22;1870;53.996;10.784;2023-05-10T04:26:38;12.70;99.90
3709;DHT22;1870;53.996;10.784;2023-05-10T04:29:04;12.70;99.90
3709;DHT22;1870;53.996;10.784;2023-05-10T04:31:29;12.80;99.90
3709;DHT22;1870;53.996;10.784;2023-05-10T04:33:55;12.70;99.90
3709;DHT22;1870;53.996;10.784;2023-05-10T04:36:21;12.80;99.90
3709;DHT22;1870;53.996;10.784;2023-05-10T04:38:46;12.90;99.90
3709;DHT22;1870;53.996;10.784;2023-05-10T04:41:12;12.80;99.90
3709;DHT22;1870;53.996;10.784;2023-05-10T04:43:38;12.80;99.90
3709;DHT22;1870;53.996;10.784;2023-05-10T04:46:05;12.90;99.90
3709;DHT22;1870;53.996;10.784;2023-05-10T04:48:30;12.90;99.90
3709;DHT22;1870;53.996;10.784;2023-05-10T04:50:56;13.10;99.90
3709;DHT22;1870;53.996;10.784;2023-05-10T04:53:22;13.10;99.90
3709;DHT22;1870;53.996;10.784;2023-05-10T04:55:48;13.20;99.90
3709;DHT22;1870;53.996;10.784;2023-05-10T04:58:14;13.30;99.90
3709;DHT22;1870;53.996;10.784;2023-05-10T05:00:40;13.30;99.90
3709;DHT22;1870;53.996;10.784;2023-05-10T05:03:06;13.30;99.90
3709;DHT22;1870;53.996;10.784;2023-05-10T05:05:31;13.50;99.90
3709;DHT22;1870;53.996;10.784;2023-05-10T05:08:00;13.60;99.90
3709;DHT22;1870;53.996;10.784;2023-05-10T05:10:26;13.60;99.90
3709;DHT22;1870;53.996;10.784;2023-05-10T05:12:51;13.70;99.90
3709;DHT22;1870;53.996;10.784;2023-05-10T05:15:17;13.70;99.90
3709;DHT22;1870;53.996;10.784;2023-05-10T05:17:43;13.70;99.90
3709;DHT22;1870;53.996;10.784;2023-05-10T05:20:09;13.80;99.90
3709;DHT22;1870;53.996;10.784;2023-05-10T05:22:39;13.80;99.90
3709;DHT22;1870;53.996;10.784;2023-05-10T05:25:05;14.00;99.90
3709;DHT22;1870;53.996;10.784;2023-05-10T05:27:31;14.00;99.90
3709;DHT22;1870;53.996;10.784;2023-05-10T05:29:57;14.10;99.90
3709;DHT22;1870;53.996;10.784;2023-05-10T05:32:24;14.10;99.90
3709;DHT22;1870;53.996;10.784;2023-05-10T05:34:49;14.10;99.90
3709;DHT22;1870;53.996;10.784;2023-05-10T05:37:19;14.20;99.90
3709;DHT22;1870;53.996;10.784;2023-05-10T05:39:45;14.20;99.90
3709;DHT22;1870;53.996;10.784;2023-05-10T05:42:12;14.30;99.90
3709;DHT22;1870;53.996;10.784;2023-05-10T05:44:38;14.40;99.90
3709;DHT22;1870;53.996;10.784;2023-05-10T05:47:04;14.30;99.90
3709;DHT22;1870;53.996;10.784;2023-05-10T05:49:32;14.20;99.90
3709;DHT22;1870;53.996;10.784;2023-05-10T05:52:02;14.30;99.90
3709;DHT22;1870;53.996;10.784;2023-05-10T05:54:28;14.30;99.90
3709;DHT22;1870;53.996;10.784;2023-05-10T05:56:58;14.30;99.90
3709;DHT22;1870;53.996;10.784;2023-05-10T05:59:24;14.40;99.90
3709;DHT22;1870;53.996;10.784;2023-05-10T06:01:50;14.30;99.90
3709;DHT22;1870;53.996;10.784;2023-05-10T06:04:16;14.40;99.90
3709;DHT22;1870;53.996;10.784;2023-05-10T06:06:42;14.50;99.90
3709;DHT22;1870;53.996;10.784;2023-05-10T06:09:08;14.50;99.90
3709;DHT22;1870;53.996;10.784;2023-05-10T06:11:34;14.60;99.90
3709;DHT22;1870;53.996;10.784;2023-05-10T06:14:00;14.70;99.90
3709;DHT22;1870;53.996;10.784;2023-05-10T06:16:26;14.70;99.90
3709;DHT22;1870;53.996;10.784;2023-05-10T06:18:52;14.90;99.90
3709;DHT22;1870;53.996;10.784;2023-05-10T06:21:18;14.90;99.90
3709;DHT22;1870;53.996;10.784;2023-05-10T06:23:43;14.90;99.90
3709;DHT22;1870;53.996;10.784;2023-05-10T06:26:09;14.90;99.90
3709;DHT22;1870;53.996;10.784;2023-05-10T06:28:35;14.90;99.90
3709;DHT22;1870;53.996;10.784;2023-05-10T06:31:03;15.00;99.90
3709;DHT22;1870;53.996;10.784;2023-05-10T06:33:29;15.00;99.90
3709;DHT22;1870;53.996;10.784;2023-05-10T06:35:55;15.10;99.90
3709;DHT22;1870;53.996;10.784;2023-05-10T06:38:21;15.20;99.90
3709;DHT22;1870;53.996;10.784;2023-05-10T06:40:47;15.20;99.90
3709;DHT22;1870;53.996;10.784;2023-05-10T06:43:13;15.30;99.90
3709;DHT22;1870;53.996;10.784;2023-05-10T06:45:38;15.40;99.90
3709;DHT22;1870;53.996;10.784;2023-05-10T06:48:04;15.50;99.90
3709;DHT22;1870;53.996;10.784;2023-05-10T06:50:30;15.50;99.90
3709;DHT22;1870;53.996;10.784;2023-05-10T06:52:56;15.50;99.90
3709;DHT22;1870;53.996;10.784;2023-05-10T06:55:21;15.70;99.90
3709;DHT22;1870;53.996;10.784;2023-05-10T06:57:47;15.70;99.90
3709;DHT22;1870;53.996;10.784;2023-05-10T07:00:13;15.70;99.90
3709;DHT22;1870;53.996;10.784;2023-05-10T07:02:39;15.80;99.90
3709;DHT22;1870;53.996;10.784;2023-05-10T07:05:05;15.90;99.90
3709;DHT22;1870;53.996;10.784;2023-05-10T07:07:31;16.00;99.90
3709;DHT22;1870;53.996;10.784;2023-05-10T07:09:57;16.10;99.90
3709;DHT22;1870;53.996;10.784;2023-05-10T07:12:23;16.20;99.90
3709;DHT22;1870;53.996;10.784;2023-05-10T07:14:49;16.30;99.90
3709;DHT22;1870;53.996;10.784;2023-05-10T07:17:15;16.40;99.90
3709;DHT22;1870;53.996;10.784;2023-05-10T07:19:41;16.40;99.90
3709;DHT22;1870;53.996;10.784;2023-05-10T07:22:06;16.50;99.90
3709;DHT22;1870;53.996;10.784;2023-05-10T07:24:33;16.60;99.90
3709;DHT22;1870;53.996;10.784;2023-05-10T07:26:59;16.60;99.90
3709;DHT22;1870;53.996;10.784;2023-05-10T07:29:24;16.70;99.90
3709;DHT22;1870;53.996;10.784;2023-05-10T07:31:50;16.80;99.90
3709;DHT22;1870;53.996;10.784;2023-05-10T07:34:16;16.90;99.90
3709;DHT22;1870;53.996;10.784;2023-05-10T07:36:41;16.80;99.90
3709;DHT22;1870;53.996;10.784;2023-05-10T07:39:07;16.90;99.90
3709;DHT22;1870;53.996;10.784;2023-05-10T07:41:33;16.90;99.90
3709;DHT22;1870;53.996;10.784;2023-05-10T07:43:58;17.10;99.90
3709;DHT22;1870;53.996;10.784;2023-05-10T07:46:24;17.10;99.90
3709;DHT22;1870;53.996;10.784;2023-05-10T07:48:50;17.10;99.90
3709;DHT22;1870;53.996;10.784;2023-05-10T07:51:15;17.20;99.90
3709;DHT22;1870;53.996;10.784;2023-05-10T07:53:41;17.20;99.90
3709;DHT22;1870;53.996;10.784;2023-05-10T07:56:27;17.20;99.90
3709;DHT22;1870;53.996;10.784;2023-05-10T07:59:04;17.40;99.90
3709;DHT22;1870;53.996;10.784;2023-05-10T08:01:32;17.40;99.90
3709;DHT22;1870;53.996;10.784;2023-05-10T08:03:58;17.50;99.90
3709;DHT22;1870;53.996;10.784;2023-05-10T08:06:24;17.50;99.90
3709;DHT22;1870;53.996;10.784;2023-05-10T08:08:51;17.40;99.90
3709;DHT22;1870;53.996;10.784;2023-05-10T08:11:19;17.50;99.90
3709;DHT22;1870;53.996;10.784;2023-05-10T08:13:46;17.50;99.90
3709;DHT22;1870;53.996;10.784;2023-05-10T08:16:12;17.60;99.90
3709;DHT22;1870;53.996;10.784;2023-05-10T08:18:38;17.70;99.90
3709;DHT22;1870;53.996;10.784;2023-05-10T08:21:04;17.80;99.90
3709;DHT22;1870;53.996;10.784;2023-05-10T08:23:30;17.80;99.90
3709;DHT22;1870;53.996;10.784;2023-05-10T08:25:56;17.90;99.90
3709;DHT22;1870;53.996;10.784;2023-05-10T08:28:22;18.00;99.90
3709;DHT22;1870;53.996;10.784;2023-05-10T08:30:49;18.00;99.90
3709;DHT22;1870;53.996;10.784;2023-05-10T08:33:15;17.90;99.90
3709;DHT22;1870;53.996;10.784;2023-05-10T08:35:41;17.90;99.90
3709;DHT22;1870;53.996;10.784;2023-05-10T08:38:06;17.90;99.90
3709;DHT22;1870;53.996;10.784;2023-05-10T08:40:32;18.00;99.90
3709;DHT22;1870;53.996;10.784;2023-05-10T08:43:06;18.10;99.90
3709;DHT22;1870;53.996;10.784;2023-05-10T08:45:43;18.30;99.90
3709;DHT22;1870;53.996;10.784;2023-05-10T08:48:11;18.30;99.90
3709;DHT22;1870;53.996;10.784;2023-05-10T08:50:41;18.30;99.90
3709;DHT22;1870;53.996;10.784;2023-05-10T08:53:11;18.40;99.90
3709;DHT22;1870;53.996;10.784;2023-05-10T08:55:37;18.60;99.90
3709;DHT22;1870;53.996;10.784;2023-05-10T08:58:07;18.70;99.90
3709;DHT22;1870;53.996;10.784;2023-05-10T09:00:33;18.70;99.90
3709;DHT22;1870;53.996;10.784;2023-05-10T09:03:00;18.80;99.90
3709;DHT22;1870;53.996;10.784;2023-05-10T09:05:26;18.90;99.90
3709;DHT22;1870;53.996;10.784;2023-05-10T09:07:52;18.90;99.90
3709;DHT22;1870;53.996;10.784;2023-05-10T09:10:18;19.00;99.90
3709;DHT22;1870;53.996;10.784;2023-05-10T09:12:44;19.10;99.90
3709;DHT22;1870;53.996;10.784;2023-05-10T09:15:11;19.10;99.90
3709;DHT22;1870;53.996;10.784;2023-05-10T09:17:38;19.20;99.90
3709;DHT22;1870;53.996;10.784;2023-05-10T09:20:06;19.30;99.90
3709;DHT22;1870;53.996;10.784;2023-05-10T09:22:31;19.30;99.90
3709;DHT22;1870;53.996;10.784;2023-05-10T09:27:34;19.50;99.90
3709;DHT22;1870;53.996;10.784;2023-05-10T09:30:00;19.50;99.90
3709;DHT22;1870;53.996;10.784;2023-05-10T09:32:43;19.60;99.90
3709;DHT22;1870;53.996;10.784;2023-05-10T09:35:18;19.60;99.90
3709;DHT22;1870;53.996;10.784;2023-05-10T09:37:46;19.70;99.90
3709;DHT22;1870;53.996;10.784;2023-05-10T09:40:23;19.80;99.90
3709;DHT22;1870;53.996;10.784;2023-05-10T09:43:08;19.90;99.90
3709;DHT22;1870;53.996;10.784;2023-05-10T09:45:34;20.00;99.90
3709;DHT22;1870;53.996;10.784;2023-05-10T09:48:01;20.10;99.90
3709;DHT22;1870;53.996;10.784;2023-05-10T09:50:28;20.20;99.90
3709;DHT22;1870;53.996;10.784;2023-05-10T09:52:58;20.20;99.90
3709;DHT22;1870;53.996;10.784;2023-05-10T09:55:45;20.30;99.90
3709;DHT22;1870;53.996;10.784;2023-05-10T09:58:13;20.20;99.90
3709;DHT22;1870;53.996;10.784;2023-05-10T10:00:41;20.50;99.90
3709;DHT22;1870;53.996;10.784;2023-05-10T10:03:16;20.60;99.90
3709;DHT22;1870;53.996;10.784;2023-05-10T10:05:43;20.70;99.90
3709;DHT22;1870;53.996;10.784;2023-05-10T10:08:09;20.80;99.90
3709;DHT22;1870;53.996;10.784;2023-05-10T10:10:35;20.90;99.90
3709;DHT22;1870;53.996;10.784;2023-05-10T10:13:01;20.90;99.90
3709;DHT22;1870;53.996;10.784;2023-05-10T10:15:27;20.90;99.90
3709;DHT22;1870;53.996;10.784;2023-05-10T10:17:54;21.00;99.90
3709;DHT22;1870;53.996;10.784;2023-05-10T10:20:21;21.10;99.90
3709;DHT22;1870;53.996;10.784;2023-05-10T10:22:47;21.20;99.90
3709;DHT22;1870;53.996;10.784;2023-05-10T10:25:16;21.30;99.90
3709;DHT22;1870;53.996;10.784;2023-05-10T10:36:02;21.70;99.90
3709;DHT22;1870;53.996;10.784;2023-05-10T10:38:54;21.90;99.90
3709;DHT22;1870;53.996;10.784;2023-05-10T10:41:35;22.10;99.90
3709;DHT22;1870;53.996;10.784;2023-05-10T10:44:33;22.40;99.90
3709;DHT22;1870;53.996;10.784;2023-05-10T10:47:04;22.50;99.90
3709;DHT22;1870;53.996;10.784;2023-05-10T10:55:17;22.80;99.90
3709;DHT22;1870;53.996;10.784;2023-05-10T11:00:28;22.60;99.90
3709;DHT22;1870;53.996;10.784;2023-05-10T11:03:18;22.80;99.90
3709;DHT22;1870;53.996;10.784;2023-05-10T11:05:47;22.90;99.90
3709;DHT22;1870;53.996;10.784;2023-05-10T11:08:16;22.90;99.90
3709;DHT22;1870;53.996;10.784;2023-05-10T11:11:14;22.80;99.90
3709;DHT22;1870;53.996;10.784;2023-05-10T11:13:43;23.00;99.90
3709;DHT22;1870;53.996;10.784;2023-05-10T11:18:38;23.30;99.90
3709;DHT22;1870;53.996;10.784;2023-05-10T11:21:04;23.00;99.90
3709;DHT22;1870;53.996;10.784;2023-05-10T11:23:55;23.10;99.90
3709;DHT22;1870;53.996;10.784;2023-05-10T11:26:23;23.30;99.90
3709;DHT22;1870;53.996;10.784;2023-05-10T11:28:54;23.20;99.90
3709;DHT22;1870;53.996;10.784;2023-05-10T11:31:21;23.20;99.90
3709;DHT22;1870;53.996;10.784;2023-05-10T11:33:48;23.20;99.90
3709;DHT22;1870;53.996;10.784;2023-05-10T11:36:19;23.30;99.90
3709;DHT22;1870;53.996;10.784;2023-05-10T11:38:46;23.40;99.90
3709;DHT22;1870;53.996;10.784;2023-05-10T11:41:12;23.30;99.90
3709;DHT22;1870;53.996;10.784;2023-05-10T11:43:42;23.50;99.90
3709;DHT22;1870;53.996;10.784;2023-05-10T11:46:12;23.70;99.90
3709;DHT22;1870;53.996;10.784;2023-05-10T11:48:39;23.60;99.90
3709;DHT22;1870;53.996;10.784;2023-05-10T11:51:06;23.70;99.90
3709;DHT22;1870;53.996;10.784;2023-05-10T11:53:33;23.70;99.90
3709;DHT22;1870;53.996;10.784;2023-05-10T11:56:09;23.90;99.90
3709;DHT22;1870;53.996;10.784;2023-05-10T11:58:37;23.90;99.90
3709;DHT22;1870;53.996;10.784;2023-05-10T12:01:04;24.00;99.90
3709;DHT22;1870;53.996;10.784;2023-05-10T12:03:31;24.00;99.90
3709;DHT22;1870;53.996;10.784;2023-05-10T12:05:57;24.00;99.90
3709;DHT22;1870;53.996;10.784;2023-05-10T12:08:25;24.00;99.90
3709;DHT22;1870;53.996;10.784;2023-05-10T12:10:51;24.00;99.90
3709;DHT22;1870;53.996;10.784;2023-05-10T12:13:19;24.10;99.90
3709;DHT22;1870;53.996;10.784;2023-05-10T12:15:46;24.20;99.90
3709;DHT22;1870;53.996;10.784;2023-05-10T12:18:12;24.20;99.90
3709;DHT22;1870;53.996;10.784;2023-05-10T12:20:39;24.20;99.90
3709;DHT22;1870;53.996;10.784;2023-05-10T12:23:05;24.50;99.90
3709;DHT22;1870;53.996;10.784;2023-05-10T12:25:33;24.70;99.90
3709;DHT22;1870;53.996;10.784;2023-05-10T12:27:59;24.70;99.90
3709;DHT22;1870;53.996;10.784;2023-05-10T12:30:31;24.50;99.90
3709;DHT22;1870;53.996;10.784;2023-05-10T12:33:23;24.50;99.90
3709;DHT22;1870;53.996;10.784;2023-05-10T12:35:53;24.30;99.90
3709;DHT22;1870;53.996;10.784;2023-05-10T12:38:29;24.40;99.90
3709;DHT22;1870;53.996;10.784;2023-05-10T12:41:03;24.50;99.90
3709;DHT22;1870;53.996;10.784;2023-05-10T12:43:29;24.30;99.90
3709;DHT22;1870;53.996;10.784;2023-05-10T12:45:55;24.50;99.90
3709;DHT22;1870;53.996;10.784;2023-05-10T12:48:21;24.50;99.90
3709;DHT22;1870;53.996;10.784;2023-05-10T12:50:47;24.50;99.90
3709;DHT22;1870;53.996;10.784;2023-05-10T12:53:16;24.30;99.90
3709;DHT22;1870;53.996;10.784;2023-05-10T12:55:43;24.10;99.90
3709;DHT22;1870;53.996;10.784;2023-05-10T12:58:08;24.00;99.90
3709;DHT22;1870;53.996;10.784;2023-05-10T13:00:37;23.60;99.90
3709;DHT22;1870;53.996;10.784;2023-05-10T13:03:04;23.40;99.90
3709;DHT22;1870;53.996;10.784;2023-05-10T13:05:32;23.00;99.90
3709;DHT22;1870;53.996;10.784;2023-05-10T13:07:58;22.60;99.90
3709;DHT22;1870;53.996;10.784;2023-05-10T13:10:23;22.10;99.90
3709;DHT22;1870;53.996;10.784;2023-05-10T13:12:50;21.70;99.90
3709;DHT22;1870;53.996;10.784;2023-05-10T13:15:16;21.00;99.90
3709;DHT22;1870;53.996;10.784;2023-05-10T13:17:42;20.70;99.90
3709;DHT22;1870;53.996;10.784;2023-05-10T13:20:09;20.20;99.90
3709;DHT22;1870;53.996;10.784;2023-05-10T13:22:35;20.10;99.90
3709;DHT22;1870;53.996;10.784;2023-05-10T13:25:01;19.90;99.90
3709;DHT22;1870;53.996;10.784;2023-05-10T13:27:26;19.70;99.90
3709;DHT22;1870;53.996;10.784;2023-05-10T13:29:52;19.70;99.90
3709;DHT22;1870;53.996;10.784;2023-05-10T13:32:18;19.50;99.90
3709;DHT22;1870;53.996;10.784;2023-05-10T13:34:44;19.30;99.90
3709;DHT22;1870;53.996;10.784;2023-05-10T13:37:10;19.00;99.90
3709;DHT22;1870;53.996;10.784;2023-05-10T13:39:35;18.70;99.90
3709;DHT22;1870;53.996;10.784;2023-05-10T13:42:03;18.60;99.90
3709;DHT22;1870;53.996;10.784;2023-05-10T13:44:29;18.40;99.90
3709;DHT22;1870;53.996;10.784;2023-05-10T13:46:55;18.40;99.90
3709;DHT22;1870;53.996;10.784;2023-05-10T13:49:21;18.50;99.90
3709;DHT22;1870;53.996;10.784;2023-05-10T13:51:47;18.50;99.90
3709;DHT22;1870;53.996;10.784;2023-05-10T13:54:13;18.50;99.90
3709;DHT22;1870;53.996;10.784;2023-05-10T13:56:39;18.60;99.90
3709;DHT22;1870;53.996;10.784;2023-05-10T13:59:06;18.50;99.90
3709;DHT22;1870;53.996;10.784;2023-05-10T14:01:33;18.50;99.90
3709;DHT22;1870;53.996;10.784;2023-05-10T14:03:59;18.30;99.90
3709;DHT22;1870;53.996;10.784;2023-05-10T14:06:25;18.40;99.90
3709;DHT22;1870;53.996;10.784;2023-05-10T14:08:51;18.20;99.90
3709;DHT22;1870;53.996;10.784;2023-05-10T14:11:17;18.40;99.90
3709;DHT22;1870;53.996;10.784;2023-05-10T14:13:43;18.40;99.90
3709;DHT22;1870;53.996;10.784;2023-05-10T14:16:08;18.70;99.90
3709;DHT22;1870;53.996;10.784;2023-05-10T14:18:34;18.70;99.90
3709;DHT22;1870;53.996;10.784;2023-05-10T14:21:00;18.80;99.90
3709;DHT22;1870;53.996;10.784;2023-05-10T14:23:25;18.90;99.90
3709;DHT22;1870;53.996;10.784;2023-05-10T14:25:52;18.80;99.90
3709;DHT22;1870;53.996;10.784;2023-05-10T14:28:18;18.70;99.90
3709;DHT22;1870;53.996;10.784;2023-05-10T14:30:44;18.60;99.90
3709;DHT22;1870;53.996;10.784;2023-05-10T14:33:09;18.60;99.90
3709;DHT22;1870;53.996;10.784;2023-05-10T14:35:35;18.70;99.90
3709;DHT22;1870;53.996;10.784;2023-05-10T14:38:02;18.80;99.90
3709;DHT22;1870;53.996;10.784;2023-05-10T14:40:29;19.00;99.90
3709;DHT22;1870;53.996;10.784;2023-05-10T14:42:55;19.00;99.90
3709;DHT22;1870;53.996;10.784;2023-05-10T14:45:21;19.00;99.90
3709;DHT22;1870;53.996;10.784;2023-05-10T14:47:48;18.80;99.90
3709;DHT22;1870;53.996;10.784;2023-05-10T14:50:14;18.90;99.90
3709;DHT22;1870;53.996;10.784;2023-05-10T14:52:39;19.00;99.90
3709;DHT22;1870;53.996;10.784;2023-05-10T14:55:06;18.90;99.90
3709;DHT22;1870;53.996;10.784;2023-05-10T14:57:31;18.80;99.90
3709;DHT22;1870;53.996;10.784;2023-05-10T14:59:57;18.90;99.90
3709;DHT22;1870;53.996;10.784;2023-05-10T15:02:23;19.00;99.90
3709;DHT22;1870;53.996;10.784;2023-05-10T15:04:49;19.10;99.90
3709;DHT22;1870;53.996;10.784;2023-05-10T15:07:17;19.00;99.90
3709;DHT22;1870;53.996;10.784;2023-05-10T15:09:44;19.20;99.90
3709;DHT22;1870;53.996;10.784;2023-05-10T15:12:10;19.10;99.90
3709;DHT22;1870;53.996;10.784;2023-05-10T15:14:35;19.10;99.90
3709;DHT22;1870;53.996;10.784;2023-05-10T15:17:02;19.30;99.90
3709;DHT22;1870;53.996;10.784;2023-05-10T15:19:28;19.40;99.90
3709;DHT22;1870;53.996;10.784;2023-05-10T15:21:54;19.60;99.90
3709;DHT22;1870;53.996;10.784;2023-05-10T15:24:21;19.60;99.90
3709;DHT22;1870;53.996;10.784;2023-05-10T15:26:47;19.70;99.90
3709;DHT22;1870;53.996;10.784;2023-05-10T15:29:12;19.70;99.90
3709;DHT22;1870;53.996;10.784;2023-05-10T15:31:45;19.70;99.90
3709;DHT22;1870;53.996;10.784;2023-05-10T15:34:11;19.90;99.90
3709;DHT22;1870;53.996;10.784;2023-05-10T15:36:37;19.90;99.90
3709;DHT22;1870;53.996;10.784;2023-05-10T15:39:02;19.90;99.90
3709;DHT22;1870;53.996;10.784;2023-05-10T15:41:29;19.80;99.90
3709;DHT22;1870;53.996;10.784;2023-05-10T15:43:55;19.90;99.90
3709;DHT22;1870;53.996;10.784;2023-05-10T15:46:21;20.00;99.90
3709;DHT22;1870;53.996;10.784;2023-05-10T15:48:47;20.10;99.90
3709;DHT22;1870;53.996;10.784;2023-05-10T15:51:12;20.10;99.90
3709;DHT22;1870;53.996;10.784;2023-05-10T15:53:38;19.90;99.90
3709;DHT22;1870;53.996;10.784;2023-05-10T15:56:04;20.20;99.90
3709;DHT22;1870;53.996;10.784;2023-05-10T15:58:30;20.10;99.90
3709;DHT22;1870;53.996;10.784;2023-05-10T16:00:56;20.00;99.90
3709;DHT22;1870;53.996;10.784;2023-05-10T16:03:22;20.00;99.90
3709;DHT22;1870;53.996;10.784;2023-05-10T16:05:48;20.00;99.90
3709;DHT22;1870;53.996;10.784;2023-05-10T16:08:13;20.00;99.90
3709;DHT22;1870;53.996;10.784;2023-05-10T16:10:39;19.90;99.90
3709;DHT22;1870;53.996;10.784;2023-05-10T16:13:07;19.90;99.90
3709;DHT22;1870;53.996;10.784;2023-05-10T16:15:33;19.90;99.90
3709;DHT22;1870;53.996;10.784;2023-05-10T16:18:01;19.80;99.90
3709;DHT22;1870;53.996;10.784;2023-05-10T16:20:27;19.70;99.90
3709;DHT22;1870;53.996;10.784;2023-05-10T16:22:54;19.60;99.90